CPP2 weather

Collingwood (General and Marine Hospital) Heliport
Collingwood, Ontario, Canada

Public forecast

Using degrees Celsius for public forecast. Weather courtesy of forecast.io.

Closest aviation weather report (METAR) to Collingwood (General and Marine Hospital) Heliport

Closest report is CFB Borden, 18.5 nm (34.3 km) SE. Retrieved 2019/11/21 23:43 UTC (0 seconds ago):

CYBN 212343Z AUTO 16011KT 3SM RA BKN017 OVC038 OVC054 04/03 A2966

Closest aviation forecast (TAF) to Collingwood (General and Marine Hospital) Heliport

Closest forecast is CFB Borden, 18.5 nm (34.3 km) SE. Retrieved 2019/11/21 18:33 UTC (5 hours ago):

TAF TAF CYBN 211730Z 2118/2206 15012G22KT P6SM SCT020 OVC100 TEMPO 2118/2120 5SM -SHRA BR BKN020 OVC100 FM212000 15012G22KT 4SM -RA BR SCT008 OVC015 TEMPO 2120/2123 P6SM -RA SCT015 OVC025 FM212300 17015G25KT 3SM -RA BR SCT005 OVC008 TEMPO 2123/2206 6SM -RA BR SCT008 OVC015 BECMG 2201/2203 22010KT RMK FCST BASED ON AUTO OBS NXT FCST BY 220000Z